Time;durP1;ratioP1;P1;durP2;ratioP2;P2;SDS_P1;SDS_P2;PMS_P1;PMS_P2;Temp;Humidity;BMP_temperature;BMP_pressure;BME280_temperature;BME280_humidity;BME280_pressure;Samples;Min_cycle;Max_cycle;Signal;HPM_P1;HPM_P2
2021/09/26 00:00:14;;;;;;;3.50;3.20;;;;;;;;;;5071061;28;20083;-59
2021/09/26 00:02:40;;;;;;;4.15;3.17;;;;;;;;;;5071504;28;20029;-57
2021/09/26 00:05:06;;;;;;;5.00;3.50;;;;;;;;;;5070595;28;20899;-59
2021/09/26 00:07:32;;;;;;;3.78;3.38;;;;;;;;;;5069952;28;20032;-59
2021/09/26 00:09:57;;;;;;;5.95;3.95;;;;;;;;;;5070548;28;20021;-59
2021/09/26 00:12:23;;;;;;;4.38;3.22;;;;;;;;;;5070032;28;20111;-58
2021/09/26 00:14:48;;;;;;;3.95;3.55;;;;;;;;;;5067783;28;20043;-58
2021/09/26 00:17:14;;;;;;;3.78;3.28;;;;;;;;;;5067761;28;20032;-58
2021/09/26 00:19:39;;;;;;;5.93;3.80;;;;;;;;;;5069959;28;20500;-58
2021/09/26 00:22:05;;;;;;;4.03;3.38;;;;;;;;;;5062445;28;20128;-58
2021/09/26 00:24:31;;;;;;;6.97;3.90;;;;;;;;;;5069946;28;20055;-58
2021/09/26 00:26:56;;;;;;;3.60;3.05;;;;;;;;;;5071021;28;20031;-58
2021/09/26 00:29:21;;;;;;;3.20;2.60;;;;;;;;;;5070381;28;20040;-58
2021/09/26 00:31:47;;;;;;;3.40;2.67;;;;;;;;;;5070389;28;20086;-58
2021/09/26 00:34:12;;;;;;;4.18;3.03;;;;;;;;;;5070114;28;20041;-58
2021/09/26 00:36:38;;;;;;;4.15;2.95;;;;;;;;;;5070572;28;20025;-58
2021/09/26 00:39:03;;;;;;;4.82;4.03;;;;;;;;;;5068604;28;20504;-58
2021/09/26 00:41:29;;;;;;;5.05;3.60;;;;;;;;;;5064643;28;20115;-58
2021/09/26 00:43:54;;;;;;;3.90;2.78;;;;;;;;;;5069694;28;20032;-58
2021/09/26 00:46:20;;;;;;;3.70;3.13;;;;;;;;;;5070618;28;20119;-59
2021/09/26 00:48:45;;;;;;;4.18;3.53;;;;;;;;;;5070240;28;20499;-59
2021/09/26 00:51:11;;;;;;;4.53;3.42;;;;;;;;;;5070009;28;20051;-59
2021/09/26 00:53:39;;;;;;;4.85;3.00;;;;;;;;;;5068047;28;20839;-57
2021/09/26 00:56:05;;;;;;;4.00;2.67;;;;;;;;;;5069185;28;20029;-59
2021/09/26 00:58:31;;;;;;;4.43;3.42;;;;;;;;;;5070174;28;20035;-59
2021/09/26 01:00:56;;;;;;;4.00;2.65;;;;;;;;;;5069771;28;20035;-59
2021/09/26 01:03:21;;;;;;;4.75;3.40;;;;;;;;;;5069005;28;20051;-60
2021/09/26 01:05:59;;;;;;;5.03;3.47;;;;;;;;;;5070571;28;20078;-59
2021/09/26 01:08:32;;;;;;;3.65;3.05;;;;;;;;;;5068140;28;20032;-60
2021/09/26 01:11:07;;;;;;;3.42;2.80;;;;;;;;;;5068746;28;20060;-60
2021/09/26 01:13:51;;;;;;;3.10;2.47;;;;;;;;;;5068285;28;20086;-58
2021/09/26 01:16:28;;;;;;;4.13;2.83;;;;;;;;;;5067865;28;20115;-59
2021/09/26 01:19:20;;;;;;;3.50;2.92;;;;;;;;;;5068567;28;20052;-59
2021/09/26 01:21:53;;;;;;;3.45;2.42;;;;;;;;;;5058980;28;20102;-60
2021/09/26 01:24:49;;;;;;;3.60;2.38;;;;;;;;;;5069678;28;20028;-58
2021/09/26 01:27:29;;;;;;;4.43;2.33;;;;;;;;;;5061715;28;20047;-58
2021/09/26 01:30:26;;;;;;;4.03;2.90;;;;;;;;;;5063473;28;20802;-58
2021/09/26 01:33:26;;;;;;;4.70;2.97;;;;;;;;;;5066960;28;20036;-58
2021/09/26 01:35:57;;;;;;;5.30;2.80;;;;;;;;;;5042289;28;20044;-59
2021/09/26 01:38:54;;;;;;;4.57;2.92;;;;;;;;;;5068409;28;20246;-59
2021/09/26 01:41:35;;;;;;;2.65;2.03;;;;;;;;;;5062459;28;20121;-59
2021/09/26 01:44:07;;;;;;;5.65;2.95;;;;;;;;;;5068836;28;20043;-58
2021/09/26 01:46:39;;;;;;;7.35;3.42;;;;;;;;;;5069449;28;20399;-60
2021/09/26 01:49:15;;;;;;;3.20;2.30;;;;;;;;;;5069492;28;20028;-61
2021/09/26 01:51:43;;;;;;;4.18;3.00;;;;;;;;;;5069541;28;20496;-59
2021/09/26 01:54:10;;;;;;;4.70;3.20;;;;;;;;;;5067421;28;20052;-59
2021/09/26 01:56:37;;;;;;;2.90;2.42;;;;;;;;;;5067201;28;20024;-60
2021/09/26 01:59:05;;;;;;;4.85;2.80;;;;;;;;;;5068842;28;20039;-58
2021/09/26 02:01:30;;;;;;;3.85;2.85;;;;;;;;;;5068718;28;20524;-60
2021/09/26 02:03:57;;;;;;;3.63;2.92;;;;;;;;;;5069265;28;20040;-60
2021/09/26 02:06:23;;;;;;;3.25;2.65;;;;;;;;;;5069147;28;20024;-59
2021/09/26 02:08:50;;;;;;;4.35;2.85;;;;;;;;;;5064682;28;20033;-58
2021/09/26 02:11:16;;;;;;;4.22;2.85;;;;;;;;;;5068214;28;20583;-58
2021/09/26 02:13:44;;;;;;;2.95;2.17;;;;;;;;;;5068982;28;20034;-58
2021/09/26 02:16:10;;;;;;;4.70;3.03;;;;;;;;;;5067714;28;20044;-58
2021/09/26 02:18:37;;;;;;;3.55;2.63;;;;;;;;;;5066306;28;20031;-58
2021/09/26 02:21:05;;;;;;;3.42;2.45;;;;;;;;;;5069868;28;20049;-58
2021/09/26 02:23:31;;;;;;;3.90;2.95;;;;;;;;;;5068707;28;20032;-58
2021/09/26 02:25:57;;;;;;;2.35;1.63;;;;;;;;;;5066688;28;20036;-58
2021/09/26 02:28:22;;;;;;;4.50;2.70;;;;;;;;;;5065247;28;20083;-58
2021/09/26 02:30:49;;;;;;;4.18;3.05;;;;;;;;;;5067300;28;20470;-58
2021/09/26 02:33:14;;;;;;;4.80;3.03;;;;;;;;;;5067165;28;20037;-58
2021/09/26 02:35:40;;;;;;;4.72;2.78;;;;;;;;;;5068531;28;20672;-58
2021/09/26 02:38:05;;;;;;;3.25;2.33;;;;;;;;;;5067433;28;20029;-58
2021/09/26 02:40:33;;;;;;;3.80;2.92;;;;;;;;;;5068281;28;20091;-58
2021/09/26 02:43:19;;;;;;;5.32;2.80;;;;;;;;;;5069254;28;20392;-58
2021/09/26 02:45:48;;;;;;;3.40;2.42;;;;;;;;;;5068616;28;20036;-58
2021/09/26 02:48:21;;;;;;;4.05;2.60;;;;;;;;;;5067800;28;20032;-58
2021/09/26 02:50:48;;;;;;;3.03;2.25;;;;;;;;;;5069015;28;20040;-58
2021/09/26 02:53:15;;;;;;;3.30;2.63;;;;;;;;;;5067218;28;20032;-58
2021/09/26 02:55:42;;;;;;;3.78;2.33;;;;;;;;;;5070405;28;20035;-58
2021/09/26 02:58:09;;;;;;;4.65;2.75;;;;;;;;;;5072262;28;20064;-58
2021/09/26 03:00:43;;;;;;;3.67;2.70;;;;;;;;;;5072428;28;20032;-58
2021/09/26 03:03:18;;;;;;;4.20;2.53;;;;;;;;;;5072390;28;20040;-58
2021/09/26 03:05:45;;;;;;;3.33;2.65;;;;;;;;;;5071376;28;20020;-58
2021/09/26 03:08:11;;;;;;;4.18;2.72;;;;;;;;;;5070924;28;20361;-58
2021/09/26 03:10:38;;;;;;;3.78;2.83;;;;;;;;;;5070385;28;20154;-58
2021/09/26 03:13:04;;;;;;;3.50;2.72;;;;;;;;;;5072171;28;20109;-58
2021/09/26 03:15:31;;;;;;;5.15;2.70;;;;;;;;;;5071465;28;20178;-58
2021/09/26 03:17:56;;;;;;;3.80;2.72;;;;;;;;;;5072225;28;20024;-58
2021/09/26 03:20:22;;;;;;;3.60;2.97;;;;;;;;;;5071242;28;20477;-58
2021/09/26 03:22:49;;;;;;;3.90;2.80;;;;;;;;;;5072485;28;20035;-58
2021/09/26 03:25:16;;;;;;;3.25;2.40;;;;;;;;;;5071142;28;20032;-58
2021/09/26 03:27:42;;;;;;;3.10;2.50;;;;;;;;;;5072029;28;20075;-58
2021/09/26 03:30:08;;;;;;;3.85;2.97;;;;;;;;;;5071916;28;20075;-58
2021/09/26 03:32:34;;;;;;;3.60;2.72;;;;;;;;;;5071158;28;20024;-58
2021/09/26 03:34:59;;;;;;;3.90;2.80;;;;;;;;;;5071705;28;20088;-58
2021/09/26 03:37:25;;;;;;;4.82;2.72;;;;;;;;;;5070551;28;20113;-58
2021/09/26 03:39:51;;;;;;;3.63;2.70;;;;;;;;;;5071491;28;20184;-58
2021/09/26 03:42:17;;;;;;;3.20;2.72;;;;;;;;;;5071044;28;20068;-58
2021/09/26 03:44:42;;;;;;;4.00;2.30;;;;;;;;;;5071147;28;20067;-58
2021/09/26 03:47:08;;;;;;;4.00;3.03;;;;;;;;;;5071455;28;20032;-58
2021/09/26 03:49:33;;;;;;;3.45;2.90;;;;;;;;;;5070443;28;20024;-59
2021/09/26 03:51:59;;;;;;;4.03;2.75;;;;;;;;;;5071307;28;20170;-59
2021/09/26 03:54:24;;;;;;;4.07;2.80;;;;;;;;;;5071184;28;20047;-59
2021/09/26 03:56:50;;;;;;;8.18;3.35;;;;;;;;;;5071682;28;20028;-59
2021/09/26 03:59:16;;;;;;;3.83;2.92;;;;;;;;;;5070632;28;20039;-59
2021/09/26 04:01:42;;;;;;;3.30;2.42;;;;;;;;;;5071314;28;20035;-59
2021/09/26 04:04:08;;;;;;;4.55;3.30;;;;;;;;;;5071514;28;20369;-59
2021/09/26 04:06:34;;;;;;;4.97;3.50;;;;;;;;;;5067319;28;20174;-59
2021/09/26 04:09:00;;;;;;;3.55;3.08;;;;;;;;;;5069919;28;20420;-59
2021/09/26 04:11:25;;;;;;;3.40;2.67;;;;;;;;;;5068471;28;20119;-59
2021/09/26 04:13:51;;;;;;;3.25;2.38;;;;;;;;;;5070052;28;20042;-59
2021/09/26 04:16:16;;;;;;;4.15;3.08;;;;;;;;;;5068859;28;20032;-59
2021/09/26 04:18:42;;;;;;;3.47;2.60;;;;;;;;;;5069368;28;20393;-59
2021/09/26 04:21:08;;;;;;;3.83;2.60;;;;;;;;;;5070483;28;20373;-59
2021/09/26 04:23:34;;;;;;;4.57;3.15;;;;;;;;;;5070522;28;20119;-59
2021/09/26 04:26:00;;;;;;;3.33;2.85;;;;;;;;;;5070962;28;20136;-59
2021/09/26 04:28:25;;;;;;;3.45;2.85;;;;;;;;;;5069646;28;20478;-58
2021/09/26 04:30:50;;;;;;;3.83;2.60;;;;;;;;;;5068287;28;20054;-60
2021/09/26 04:33:16;;;;;;;7.45;3.20;;;;;;;;;;5069751;28;20036;-59
2021/09/26 04:35:41;;;;;;;3.75;2.67;;;;;;;;;;5070755;28;20040;-58
2021/09/26 04:38:07;;;;;;;5.28;3.70;;;;;;;;;;5068191;28;20098;-58
2021/09/26 04:40:32;;;;;;;3.47;2.83;;;;;;;;;;5068501;28;20044;-59
2021/09/26 04:42:58;;;;;;;3.88;2.88;;;;;;;;;;5064589;28;20031;-59
2021/09/26 04:45:23;;;;;;;4.90;3.30;;;;;;;;;;5070534;28;20033;-59
2021/09/26 04:47:49;;;;;;;3.92;2.78;;;;;;;;;;5069589;28;20024;-59
2021/09/26 04:50:14;;;;;;;8.43;3.45;;;;;;;;;;5066472;28;20044;-59
2021/09/26 04:52:40;;;;;;;3.42;2.75;;;;;;;;;;5070126;28;20028;-58
2021/09/26 04:55:06;;;;;;;4.30;2.83;;;;;;;;;;5070342;28;20112;-59
2021/09/26 04:57:32;;;;;;;4.25;2.88;;;;;;;;;;5069396;28;20032;-59
2021/09/26 04:59:57;;;;;;;4.00;3.13;;;;;;;;;;5069372;28;20036;-59
2021/09/26 05:02:23;;;;;;;3.28;2.38;;;;;;;;;;5069819;28;20083;-59
2021/09/26 05:04:48;;;;;;;3.75;2.65;;;;;;;;;;5069975;28;20024;-59
2021/09/26 05:07:14;;;;;;;4.57;3.17;;;;;;;;;;5069661;28;20120;-59
2021/09/26 05:09:39;;;;;;;3.40;2.67;;;;;;;;;;5068722;28;20477;-59
2021/09/26 05:12:05;;;;;;;4.07;2.88;;;;;;;;;;5069701;28;20036;-59
2021/09/26 05:14:31;;;;;;;3.78;2.60;;;;;;;;;;5068427;28;20066;-59
2021/09/26 05:16:56;;;;;;;3.92;2.88;;;;;;;;;;5070287;28;20052;-59
2021/09/26 05:19:22;;;;;;;4.07;2.58;;;;;;;;;;5067751;28;20131;-58
2021/09/26 05:21:47;;;;;;;3.80;3.28;;;;;;;;;;5067761;28;20033;-59
2021/09/26 05:24:12;;;;;;;3.38;2.95;;;;;;;;;;5069194;28;20043;-59
2021/09/26 05:26:38;;;;;;;4.05;3.38;;;;;;;;;;5069764;28;20469;-59
2021/09/26 05:29:06;;;;;;;5.88;3.22;;;;;;;;;;5069556;28;20048;-59
2021/09/26 05:31:34;;;;;;;3.40;2.30;;;;;;;;;;5069153;28;20040;-59
2021/09/26 05:34:00;;;;;;;4.18;2.85;;;;;;;;;;5069052;28;20507;-59
2021/09/26 05:36:26;;;;;;;2.95;1.98;;;;;;;;;;5069478;28;20032;-59
2021/09/26 05:38:52;;;;;;;3.42;2.53;;;;;;;;;;5068215;28;20112;-60
2021/09/26 05:41:17;;;;;;;3.58;2.72;;;;;;;;;;5068350;28;20075;-59
2021/09/26 05:43:42;;;;;;;2.78;2.20;;;;;;;;;;5069837;28;20043;-59
2021/09/26 05:46:08;;;;;;;3.90;2.85;;;;;;;;;;5069982;28;20422;-59
2021/09/26 05:48:33;;;;;;;3.22;2.67;;;;;;;;;;5066710;28;20033;-59
2021/09/26 05:50:59;;;;;;;3.75;2.80;;;;;;;;;;5064987;28;20115;-59
2021/09/26 05:53:25;;;;;;;3.92;3.03;;;;;;;;;;5066480;28;20090;-59
2021/09/26 05:55:50;;;;;;;3.30;2.95;;;;;;;;;;5064460;28;20028;-59
2021/09/26 05:58:16;;;;;;;4.15;2.53;;;;;;;;;;5065129;28;20032;-59
2021/09/26 06:00:42;;;;;;;4.03;2.80;;;;;;;;;;5063050;28;20115;-59
2021/09/26 06:03:11;;;;;;;2.95;2.28;;;;;;;;;;5048065;28;20388;-59
2021/09/26 06:05:37;;;;;;;3.55;2.55;;;;;;;;;;5065081;28;20063;-59
2021/09/26 06:08:03;;;;;;;5.43;2.70;;;;;;;;;;5064135;28;20462;-59
2021/09/26 06:10:28;;;;;;;3.13;1.90;;;;;;;;;;5066718;28;20028;-59
2021/09/26 06:12:54;;;;;;;3.53;2.75;;;;;;;;;;5064778;28;20028;-59
2021/09/26 06:15:19;;;;;;;2.83;2.22;;;;;;;;;;5066141;28;20474;-59
2021/09/26 06:17:44;;;;;;;5.05;2.72;;;;;;;;;;5062434;28;20024;-59
2021/09/26 06:20:11;;;;;;;3.40;2.55;;;;;;;;;;5066645;28;20519;-59
2021/09/26 06:22:36;;;;;;;4.70;3.10;;;;;;;;;;5066529;28;20458;-58
2021/09/26 06:25:03;;;;;;;2.72;2.20;;;;;;;;;;5063218;28;20146;-58
2021/09/26 06:27:28;;;;;;;3.40;2.90;;;;;;;;;;5067276;28;20025;-57
2021/09/26 06:29:54;;;;;;;6.43;2.90;;;;;;;;;;5065342;28;20033;-58
2021/09/26 06:32:19;;;;;;;23.17;15.52;;;;;;;;;;5063096;28;20029;-58
2021/09/26 06:34:45;;;;;;;43.75;26.33;;;;;;;;;;5070421;28;20043;-58
2021/09/26 06:37:10;;;;;;;12.20;7.63;;;;;;;;;;5072397;28;20087;-58
2021/09/26 06:39:36;;;;;;;7.53;5.95;;;;;;;;;;5070554;28;20592;-58
2021/09/26 06:42:02;;;;;;;5.38;4.63;;;;;;;;;;5071322;28;20044;-58
2021/09/26 06:44:28;;;;;;;3.35;2.67;;;;;;;;;;5072754;28;20111;-58
2021/09/26 06:46:53;;;;;;;7.50;2.97;;;;;;;;;;5068860;28;20107;-58
2021/09/26 06:49:19;;;;;;;3.85;3.10;;;;;;;;;;5071471;28;20079;-58
2021/09/26 06:51:45;;;;;;;4.22;3.25;;;;;;;;;;5072147;28;20103;-58
2021/09/26 06:54:11;;;;;;;3.60;2.60;;;;;;;;;;5071776;28;20102;-58
2021/09/26 06:56:36;;;;;;;2.92;2.40;;;;;;;;;;5072804;28;20555;-58
2021/09/26 06:59:02;;;;;;;6.55;4.18;;;;;;;;;;5072155;28;20503;-58
2021/09/26 07:01:27;;;;;;;3.80;2.75;;;;;;;;;;5071874;28;20060;-58
2021/09/26 07:03:52;;;;;;;4.22;3.75;;;;;;;;;;5072439;28;20035;-58
2021/09/26 07:06:18;;;;;;;3.55;2.95;;;;;;;;;;5069846;28;20024;-58
2021/09/26 07:08:43;;;;;;;4.63;3.47;;;;;;;;;;5070285;28;20031;-58
2021/09/26 07:11:09;;;;;;;4.50;3.13;;;;;;;;;;5071429;28;20025;-58
2021/09/26 07:13:34;;;;;;;8.88;4.47;;;;;;;;;;5072029;28;20069;-58
2021/09/26 07:15:59;;;;;;;4.65;2.92;;;;;;;;;;5072576;28;20036;-58
2021/09/26 07:18:25;;;;;;;3.55;2.75;;;;;;;;;;5071323;28;20112;-58
2021/09/26 07:20:50;;;;;;;3.40;3.10;;;;;;;;;;5072546;28;20393;-58
2021/09/26 07:23:16;;;;;;;6.47;3.45;;;;;;;;;;5068439;28;20066;-58
2021/09/26 07:25:41;;;;;;;5.82;3.63;;;;;;;;;;5071357;28;20483;-58
2021/09/26 07:28:07;;;;;;;4.15;3.30;;;;;;;;;;5071841;28;20029;-58
2021/09/26 07:30:33;;;;;;;6.05;4.28;;;;;;;;;;5071735;28;20028;-58
2021/09/26 07:32:58;;;;;;;3.85;3.45;;;;;;;;;;5069329;28;20032;-58
2021/09/26 07:35:24;;;;;;;4.25;3.28;;;;;;;;;;5065763;28;20024;-58
2021/09/26 07:37:50;;;;;;;4.07;3.47;;;;;;;;;;5070742;28;20029;-58
2021/09/26 07:40:16;;;;;;;6.75;5.05;;;;;;;;;;5069840;28;20097;-58
2021/09/26 07:42:41;;;;;;;6.70;5.20;;;;;;;;;;5068229;28;20040;-58
2021/09/26 07:45:09;;;;;;;7.35;4.78;;;;;;;;;;5070263;28;20343;-58
2021/09/26 07:47:35;;;;;;;5.05;4.13;;;;;;;;;;5069229;28;20533;-58
2021/09/26 07:50:01;;;;;;;6.55;4.93;;;;;;;;;;5068495;28;20033;-58
2021/09/26 07:52:27;;;;;;;7.88;3.90;;;;;;;;;;5069658;28;20033;-58
2021/09/26 07:54:53;;;;;;;7.43;4.35;;;;;;;;;;5068871;28;20035;-58
2021/09/26 07:57:22;;;;;;;4.35;3.78;;;;;;;;;;5068255;28;20020;-60
2021/09/26 07:59:48;;;;;;;4.82;3.85;;;;;;;;;;5069981;28;20044;-58
2021/09/26 08:02:14;;;;;;;5.60;4.28;;;;;;;;;;5070137;28;20354;-58
2021/09/26 08:04:39;;;;;;;5.50;4.38;;;;;;;;;;5069854;28;20033;-58
2021/09/26 08:07:05;;;;;;;5.85;4.55;;;;;;;;;;5069039;28;20051;-58
2021/09/26 08:09:30;;;;;;;6.70;4.57;;;;;;;;;;5067725;28;20032;-58
2021/09/26 08:11:56;;;;;;;9.55;5.65;;;;;;;;;;5070792;28;20028;-58
2021/09/26 08:14:21;;;;;;;5.53;4.28;;;;;;;;;;5070035;28;20374;-58
2021/09/26 08:16:47;;;;;;;7.18;4.47;;;;;;;;;;5063604;28;20025;-58
2021/09/26 08:19:12;;;;;;;6.35;4.57;;;;;;;;;;5070504;28;20024;-58
2021/09/26 08:21:38;;;;;;;5.75;4.93;;;;;;;;;;5067507;28;20043;-58
2021/09/26 08:24:06;;;;;;;9.50;4.75;;;;;;;;;;5067890;28;20048;-58
2021/09/26 08:26:32;;;;;;;5.03;3.83;;;;;;;;;;5064894;28;20090;-58
2021/09/26 08:28:58;;;;;;;6.85;5.60;;;;;;;;;;5067291;28;20032;-58
2021/09/26 08:31:23;;;;;;;6.63;5.55;;;;;;;;;;5067961;28;20036;-60
2021/09/26 08:33:49;;;;;;;7.20;5.78;;;;;;;;;;5070025;28;20047;-59
2021/09/26 08:36:14;;;;;;;11.40;5.82;;;;;;;;;;5070338;28;20064;-59
2021/09/26 08:38:40;;;;;;;6.55;5.18;;;;;;;;;;5069157;28;20107;-59
2021/09/26 08:41:05;;;;;;;8.00;5.25;;;;;;;;;;5067851;28;20433;-60
2021/09/26 08:43:32;;;;;;;5.10;3.65;;;;;;;;;;5067572;28;20409;-58
2021/09/26 08:45:57;;;;;;;6.72;4.78;;;;;;;;;;5070141;28;20099;-59
2021/09/26 08:48:23;;;;;;;6.32;5.03;;;;;;;;;;5069993;28;20107;-58
2021/09/26 08:50:49;;;;;;;5.45;4.10;;;;;;;;;;5069822;28;20048;-59
2021/09/26 08:53:17;;;;;;;5.40;4.53;;;;;;;;;;5069337;28;20513;-58
2021/09/26 08:55:43;;;;;;;6.40;4.80;;;;;;;;;;5070093;28;20032;-59
2021/09/26 08:58:08;;;;;;;5.78;4.60;;;;;;;;;;5070259;28;20028;-59
2021/09/26 09:00:36;;;;;;;6.93;5.55;;;;;;;;;;5068998;28;20090;-59
2021/09/26 09:03:02;;;;;;;4.93;4.10;;;;;;;;;;5070007;28;20039;-59
2021/09/26 09:05:33;;;;;;;6.43;4.22;;;;;;;;;;5070011;28;20036;-60
2021/09/26 09:08:04;;;;;;;4.38;3.58;;;;;;;;;;5069173;28;20032;-59
2021/09/26 09:10:51;;;;;;;7.65;5.18;;;;;;;;;;5068945;28;20044;-59
2021/09/26 09:13:20;;;;;;;5.28;3.88;;;;;;;;;;5052494;28;20051;-59
2021/09/26 09:16:04;;;;;;;4.93;4.13;;;;;;;;;;5069310;28;20362;-59
2021/09/26 09:18:55;;;;;;;4.35;3.38;;;;;;;;;;5068527;28;20020;-59
2021/09/26 09:21:32;;;;;;;6.93;4.75;;;;;;;;;;5068834;28;20154;-59
2021/09/26 09:24:09;;;;;;;4.60;3.65;;;;;;;;;;5069937;28;20028;-58
2021/09/26 09:26:37;;;;;;;3.88;2.92;;;;;;;;;;5067317;28;20047;-58
2021/09/26 09:29:04;;;;;;;5.68;4.07;;;;;;;;;;5069769;28;20043;-59
2021/09/26 09:31:30;;;;;;;4.07;3.38;;;;;;;;;;5069719;28;20040;-59
2021/09/26 09:33:55;;;;;;;5.28;4.18;;;;;;;;;;5059365;28;20036;-59
2021/09/26 09:36:26;;;;;;;9.15;4.10;;;;;;;;;;5068947;28;20036;-58
2021/09/26 09:38:58;;;;;;;3.90;3.33;;;;;;;;;;5067070;28;20361;-58
2021/09/26 09:41:45;;;;;;;5.40;4.50;;;;;;;;;;5069434;28;20032;-59
2021/09/26 09:44:12;;;;;;;5.97;4.43;;;;;;;;;;5068482;28;20037;-59
2021/09/26 09:46:39;;;;;;;5.47;4.10;;;;;;;;;;5067007;28;20029;-59
2021/09/26 09:49:17;;;;;;;8.20;4.75;;;;;;;;;;5068321;28;20245;-59
2021/09/26 09:51:52;;;;;;;5.32;4.05;;;;;;;;;;5069190;28;20461;-59
2021/09/26 09:54:28;;;;;;;5.32;4.65;;;;;;;;;;5069584;28;20085;-59
2021/09/26 09:56:56;;;;;;;5.30;4.18;;;;;;;;;;5069371;28;20032;-59
2021/09/26 09:59:35;;;;;;;4.88;4.38;;;;;;;;;;5069268;28;20032;-59
2021/09/26 10:02:00;;;;;;;4.45;3.55;;;;;;;;;;5066258;28;20093;-60
2021/09/26 10:04:44;;;;;;;5.15;4.18;;;;;;;;;;5067032;28;20041;-59
2021/09/26 10:07:30;;;;;;;5.63;4.22;;;;;;;;;;5069408;28;20375;-59
2021/09/26 10:09:56;;;;;;;5.28;3.58;;;;;;;;;;5066135;28;20119;-59
2021/09/26 10:12:24;;;;;;;5.45;4.53;;;;;;;;;;5069151;28;20036;-59
2021/09/26 10:14:57;;;;;;;5.18;4.45;;;;;;;;;;5069061;28;20036;-59
2021/09/26 10:17:22;;;;;;;7.10;5.05;;;;;;;;;;5069241;28;20036;-60
2021/09/26 10:19:48;;;;;;;4.93;4.43;;;;;;;;;;5051156;28;20116;-59
2021/09/26 10:22:17;;;;;;;7.13;4.95;;;;;;;;;;5068854;28;20040;-60
2021/09/26 10:24:51;;;;;;;5.60;4.82;;;;;;;;;;5064135;28;20095;-58
2021/09/26 10:27:21;;;;;;;5.97;5.13;;;;;;;;;;5068520;28;20032;-58
2021/09/26 10:29:49;;;;;;;5.45;3.67;;;;;;;;;;5068106;28;20021;-58
2021/09/26 10:32:15;;;;;;;5.07;4.40;;;;;;;;;;5069162;28;20047;-58
2021/09/26 10:34:41;;;;;;;5.72;4.00;;;;;;;;;;5068488;28;20037;-58
2021/09/26 10:37:13;;;;;;;6.30;4.75;;;;;;;;;;5066536;28;20032;-58
2021/09/26 10:39:39;;;;;;;5.13;4.43;;;;;;;;;;5064333;28;20021;-58
2021/09/26 10:42:05;;;;;;;6.15;4.78;;;;;;;;;;5066603;28;20036;-58
2021/09/26 10:44:31;;;;;;;5.68;4.78;;;;;;;;;;5062093;28;20032;-58
2021/09/26 10:47:16;;;;;;;4.22;3.63;;;;;;;;;;5063458;28;20107;-58
2021/09/26 10:49:44;;;;;;;5.43;4.15;;;;;;;;;;5067771;28;20048;-59
2021/09/26 10:52:21;;;;;;;6.72;4.65;;;;;;;;;;5067870;28;20062;-59
2021/09/26 10:54:47;;;;;;;7.25;5.18;;;;;;;;;;5068157;28;20033;-59
2021/09/26 10:57:19;;;;;;;4.95;4.07;;;;;;;;;;5062176;28;20111;-58
2021/09/26 10:59:53;;;;;;;6.20;4.38;;;;;;;;;;5065938;28;20052;-59
2021/09/26 11:02:22;;;;;;;5.65;4.22;;;;;;;;;;5067264;28;20416;-59
2021/09/26 11:04:52;;;;;;;5.97;4.22;;;;;;;;;;5066563;28;20032;-59
2021/09/26 11:07:23;;;;;;;8.10;5.70;;;;;;;;;;5066067;28;20029;-59
2021/09/26 11:10:02;;;;;;;7.28;4.95;;;;;;;;;;5067320;28;20456;-59
2021/09/26 11:12:41;;;;;;;5.25;3.80;;;;;;;;;;5067641;28;20078;-59
2021/09/26 11:15:15;;;;;;;7.25;4.70;;;;;;;;;;5066544;28;20469;-58
2021/09/26 11:17:45;;;;;;;5.80;4.55;;;;;;;;;;5067382;28;20461;-59
2021/09/26 11:20:31;;;;;;;4.35;3.63;;;;;;;;;;5071186;28;20047;-60
2021/09/26 11:23:06;;;;;;;4.93;4.10;;;;;;;;;;5071152;28;20028;-59
2021/09/26 11:25:57;;;;;;;6.00;5.30;;;;;;;;;;5070317;28;20355;-60
2021/09/26 11:28:23;;;;;;;;;;;;;;;;;;5070543;28;20481;-58
2021/09/26 11:30:49;;;;;;;4.93;4.20;;;;;;;;;;5070018;28;20248;-59
2021/09/26 11:33:14;;;;;;;4.80;4.18;;;;;;;;;;5070768;28;20040;-60
2021/09/26 11:35:41;;;;;;;5.90;5.25;;;;;;;;;;5069308;28;20044;-62
2021/09/26 11:38:13;;;;;;;6.43;4.72;;;;;;;;;;5071172;28;20041;-62
2021/09/26 11:40:47;;;;;;;6.07;4.93;;;;;;;;;;5071479;28;20043;-64
2021/09/26 11:43:15;;;;;;;7.32;4.55;;;;;;;;;;5068454;28;20066;-63
2021/09/26 11:45:41;;;;;;;10.93;5.00;;;;;;;;;;5068469;28;20855;-62
2021/09/26 11:48:10;;;;;;;7.38;4.68;;;;;;;;;;5068116;28;20117;-63
2021/09/26 11:50:38;;;;;;;5.68;4.60;;;;;;;;;;5066162;28;20058;-63
2021/09/26 11:53:05;;;;;;;11.32;5.07;;;;;;;;;;5067797;28;20618;-66
2021/09/26 11:55:33;;;;;;;6.53;5.03;;;;;;;;;;5066996;28;20119;-69
2021/09/26 11:58:01;;;;;;;5.43;4.80;;;;;;;;;;5068604;28;20546;-70
2021/09/26 12:00:29;;;;;;;5.85;5.20;;;;;;;;;;5068569;28;20512;-71
2021/09/26 12:02:54;;;;;;;7.93;4.43;;;;;;;;;;5066477;28;20631;-72
2021/09/26 12:05:49;;;;;;;6.07;5.47;;;;;;;;;;5067494;28;20036;-72
2021/09/26 12:08:15;;;;;;;12.48;5.97;;;;;;;;;;5055628;28;20036;-73
2021/09/26 12:10:41;;;;;;;18.33;5.78;;;;;;;;;;5071347;28;20428;-72
2021/09/26 12:13:15;;;;;;;5.90;5.22;;;;;;;;;;5069474;28;20094;-72
2021/09/26 12:15:41;;;;;;;5.55;4.47;;;;;;;;;;5065535;28;20029;-71
2021/09/26 12:18:07;;;;;;;6.25;5.60;;;;;;;;;;5065068;28;20032;-71
2021/09/26 12:20:33;;;;;;;5.82;4.95;;;;;;;;;;5065177;28;20063;-69
2021/09/26 12:23:00;;;;;;;5.38;4.85;;;;;;;;;;5071262;28;20036;-69
2021/09/26 12:25:33;;;;;;;6.53;5.25;;;;;;;;;;5070188;28;20087;-69
2021/09/26 12:28:03;;;;;;;6.45;4.65;;;;;;;;;;5068968;28;20064;-69
2021/09/26 12:30:47;;;;;;;5.13;3.95;;;;;;;;;;5065722;28;20400;-69
2021/09/26 12:33:24;;;;;;;7.88;4.25;;;;;;;;;;5065840;28;20036;-69
2021/09/26 12:36:02;;;;;;;6.53;3.60;;;;;;;;;;5065285;28;20544;-71
2021/09/26 12:38:30;;;;;;;5.25;3.97;;;;;;;;;;5068280;28;20029;-68
2021/09/26 12:41:04;;;;;;;5.10;3.95;;;;;;;;;;5069260;28;20038;-68
2021/09/26 12:43:37;;;;;;;4.43;3.78;;;;;;;;;;5069171;28;20040;-69
2021/09/26 12:46:08;;;;;;;4.57;3.90;;;;;;;;;;5070259;28;20047;-68
2021/09/26 12:48:36;;;;;;;4.70;2.90;;;;;;;;;;5070127;28;20635;-68
2021/09/26 12:51:11;;;;;;;5.32;4.13;;;;;;;;;;5067675;28;20055;-68
2021/09/26 12:53:41;;;;;;;4.60;3.70;;;;;;;;;;5062429;28;20090;-68
2021/09/26 12:56:08;;;;;;;3.58;2.90;;;;;;;;;;5069769;28;20052;-68
2021/09/26 12:58:43;;;;;;;4.50;3.78;;;;;;;;;;5070421;28;20066;-68
2021/09/26 13:01:14;;;;;;;4.18;3.35;;;;;;;;;;5067455;28;20025;-68
2021/09/26 13:03:47;;;;;;;6.68;3.50;;;;;;;;;;5068871;28;20040;-68
2021/09/26 13:06:21;;;;;;;3.88;2.60;;;;;;;;;;5068422;28;20111;-67
2021/09/26 13:08:46;;;;;;;4.47;3.55;;;;;;;;;;5064073;28;20025;-68
2021/09/26 13:11:21;;;;;;;4.50;3.13;;;;;;;;;;5069717;28;20039;-67
2021/09/26 13:14:17;;;;;;;4.05;2.83;;;;;;;;;;5070218;28;20042;-67
2021/09/26 13:16:47;;;;;;;4.85;2.70;;;;;;;;;;5067945;28;20620;-67
2021/09/26 13:19:31;;;;;;;4.07;3.67;;;;;;;;;;5069499;28;20090;-67
2021/09/26 13:22:01;;;;;;;5.22;4.35;;;;;;;;;;5067093;28;20047;-67
2021/09/26 13:24:27;;;;;;;6.22;4.50;;;;;;;;;;5069705;28;20403;-68
2021/09/26 13:26:52;;;;;;;5.03;3.92;;;;;;;;;;5069838;28;20043;-67
2021/09/26 13:29:30;;;;;;;4.53;3.13;;;;;;;;;;5067889;28;20406;-67
2021/09/26 13:32:11;;;;;;;3.72;3.08;;;;;;;;;;5069554;28;20032;-67
2021/09/26 13:34:38;;;;;;;4.25;3.42;;;;;;;;;;5068897;28;20039;-66
2021/09/26 13:37:13;;;;;;;5.03;3.88;;;;;;;;;;5067605;28;20482;-66
2021/09/26 13:39:41;;;;;;;5.15;4.22;;;;;;;;;;5067416;28;20461;-63
2021/09/26 13:42:17;;;;;;;5.53;4.15;;;;;;;;;;5069680;28;20032;-63
2021/09/26 13:44:43;;;;;;;3.97;3.20;;;;;;;;;;5069445;28;20174;-63
2021/09/26 13:47:09;;;;;;;5.32;4.22;;;;;;;;;;5069321;28;20115;-63
2021/09/26 13:49:35;;;;;;;5.95;3.67;;;;;;;;;;5065808;28;20029;-63
2021/09/26 13:52:01;;;;;;;4.38;3.17;;;;;;;;;;5069362;28;20059;-63
2021/09/26 13:54:26;;;;;;;4.30;3.55;;;;;;;;;;5068329;28;20051;-63
2021/09/26 13:56:52;;;;;;;4.63;3.53;;;;;;;;;;5066813;28;20032;-63
2021/09/26 13:59:17;;;;;;;4.72;3.88;;;;;;;;;;5067418;28;20066;-63
2021/09/26 14:01:43;;;;;;;4.20;3.40;;;;;;;;;;5068935;28;20387;-62
2021/09/26 14:04:08;;;;;;;4.25;3.53;;;;;;;;;;5068099;28;20036;-62
2021/09/26 14:06:34;;;;;;;4.88;3.53;;;;;;;;;;5065303;28;20097;-62
2021/09/26 14:09:00;;;;;;;3.47;2.95;;;;;;;;;;5066534;28;20480;-62
2021/09/26 14:11:25;;;;;;;4.97;3.78;;;;;;;;;;5066873;28;20042;-63
2021/09/26 14:13:51;;;;;;;5.00;4.50;;;;;;;;;;5067388;28;20028;-63
2021/09/26 14:16:17;;;;;;;4.18;3.30;;;;;;;;;;5068497;28;20052;-62
2021/09/26 14:18:44;;;;;;;3.65;3.20;;;;;;;;;;5061750;28;20111;-61
2021/09/26 14:21:10;;;;;;;4.53;3.45;;;;;;;;;;5068530;28;20029;-62
2021/09/26 14:23:36;;;;;;;4.07;3.30;;;;;;;;;;5068417;28;20040;-62
2021/09/26 14:26:03;;;;;;;6.25;3.85;;;;;;;;;;5066646;28;20049;-62
2021/09/26 14:28:30;;;;;;;4.00;3.55;;;;;;;;;;5067054;28;20044;-63
2021/09/26 14:30:57;;;;;;;4.22;3.30;;;;;;;;;;5066319;28;20056;-62
2021/09/26 14:33:23;;;;;;;4.93;3.75;;;;;;;;;;5061662;28;20029;-62
2021/09/26 14:35:48;;;;;;;4.13;3.17;;;;;;;;;;5064575;28;20476;-63
2021/09/26 14:38:14;;;;;;;4.18;3.33;;;;;;;;;;5064228;28;20046;-63
2021/09/26 14:40:40;;;;;;;4.22;3.67;;;;;;;;;;5064773;28;20112;-63
2021/09/26 14:43:06;;;;;;;4.65;3.90;;;;;;;;;;5064302;28;20060;-62
2021/09/26 14:45:34;;;;;;;3.83;3.05;;;;;;;;;;5067500;28;20083;-62
2021/09/26 14:48:00;;;;;;;5.72;2.85;;;;;;;;;;5068611;28;20041;-62
2021/09/26 14:50:28;;;;;;;4.10;3.35;;;;;;;;;;5069150;28;20454;-62